HEBA/HBE METAR and TAF weather

Enter ICAO airport designator
Station Type Date Time Source
HEBA METAR 2021/01/22 07:00 UTC NOAA

HEBA 220700Z 04006KT 9999 FEW020 13/07 Q1027 NOSIG


Station Type Date Time Source
HEBA Decoded METAR 2021/01/22 07:00 UTC NOAA

Alexandria Borg El Arab, Egypt (HEBA) 31-31N 030-10E
Jan 22, 2021 - 02:00 AM EST / 2021.01.22 0700 UTC
Wind: from the NE (040 degrees) at 7 MPH (6 KT):0
Visibility: greater than 7 mile(s):0
Sky conditions: mostly clear
Temperature: 55 F (13 C)
Dew Point: 44 F (7 C)
Relative Humidity: 66%
Pressure (altimeter): 30.33 in. Hg (1027 hPa)
ob: HEBA 220700Z 04006KT 9999 FEW020 13/07 Q1027 NOSIG
cycle: 7

Station Type Date Time Source
HEBA TAF 2021/01/22 06:12 UTC NOAA

TAF HEBA 220500Z 2206/2312 03006KT 9999 SCT020

Example: see airport list